Time;durP1;ratioP1;P1;durP2;ratioP2;P2;SDS_P1;SDS_P2;PMS_P1;PMS_P2;Temp;Humidity;BMP_temperature;BMP_pressure;BME280_temperature;BME280_humidity;BME280_pressure;Samples;Min_cycle;Max_cycle;Signal;HPM_P1;HPM_P2
2024/01/03 00:00:38;;;;;;;23.80;13.00;;;;;;;-13.78;100.00;138949.69;107190;1263;25439;-59
2024/01/03 00:03:27;;;;;;;25.10;11.80;;;;;;;-13.72;100.00;138963.67;107157;1263;23401;-58
2024/01/03 00:06:15;;;;;;;23.40;12.10;;;;;;;-13.64;100.00;138982.30;107204;1262;22548;-57
2024/01/03 00:09:02;;;;;;;26.00;12.90;;;;;;;-13.63;100.00;138986.97;107170;1264;25372;-57
2024/01/03 00:11:48;;;;;;;24.00;12.60;;;;;;;-13.59;100.00;138995.80;107162;1263;25391;-55
2024/01/03 00:14:34;;;;;;;25.40;13.30;;;;;;;-13.58;100.00;138999.00;107167;1266;25369;-57
2024/01/03 00:17:20;;;;;;;24.30;12.40;;;;;;;-13.71;100.00;138967.59;107183;1266;25381;-59
2024/01/03 00:20:08;;;;;;;21.20;11.40;;;;;;;-13.83;100.00;138937.67;107315;1263;25395;-59
2024/01/03 00:22:53;;;;;;;26.60;13.30;;;;;;;-13.83;100.00;138938.17;107561;1254;25328;-62
2024/01/03 00:25:39;;;;;;;25.30;13.40;;;;;;;-13.65;100.00;138980.34;107310;1264;25356;-55
2024/01/03 00:28:25;;;;;;;19.30;11.00;;;;;;;-13.52;100.00;139011.52;107315;1266;25487;-59
2024/01/03 00:31:25;;;;;;;22.70;12.30;;;;;;;-13.68;100.00;138973.23;107344;1270;25507;-58
2024/01/03 00:34:26;;;;;;;24.10;12.40;;;;;;;-13.68;100.00;138972.75;107136;1265;25490;-58
2024/01/03 00:37:15;;;;;;;23.90;12.50;;;;;;;-13.64;100.00;138982.08;107168;1263;25349;-59
2024/01/03 00:40:04;;;;;;;22.70;12.30;;;;;;;-13.62;100.00;138987.47;107194;1263;23898;-59
2024/01/03 00:42:50;;;;;;;22.40;10.50;;;;;;;-13.59;100.00;138995.33;107188;1266;25366;-58
2024/01/03 00:45:36;;;;;;;22.20;12.50;;;;;;;-13.65;100.00;138980.11;107449;1263;25468;-56
2024/01/03 00:48:22;;;;;;;20.60;12.00;;;;;;;-13.73;100.00;138961.47;107196;1269;25324;-58
2024/01/03 00:51:08;;;;;;;21.90;12.40;;;;;;;-13.67;100.00;138974.95;107085;1263;25414;-56
2024/01/03 00:53:54;;;;;;;20.60;11.30;;;;;;;-13.64;100.00;138984.05;107272;1260;23815;-58
2024/01/03 00:56:39;;;;;;;21.20;12.50;;;;;;;-13.61;100.00;138991.39;107206;1263;25346;-56
2024/01/03 00:59:26;;;;;;;23.10;13.20;;;;;;;-13.68;100.00;138973.23;107130;1262;22977;-56
2024/01/03 01:02:12;;;;;;;24.80;11.80;;;;;;;-13.67;100.00;138974.70;107132;1263;25511;-56
2024/01/03 01:04:58;;;;;;;22.90;12.50;;;;;;;-13.54;100.00;139006.84;107029;1266;25442;-59
2024/01/03 01:07:44;;;;;;;22.70;13.70;;;;;;;-13.44;100.00;139032.59;107072;1263;25366;-54
2024/01/03 01:10:30;;;;;;;24.40;12.90;;;;;;;-13.39;100.00;139043.91;107075;1266;25343;-56
2024/01/03 01:13:15;;;;;;;25.10;12.70;;;;;;;-13.52;100.00;139012.98;107038;1266;25341;-58
2024/01/03 01:16:01;;;;;;;25.40;13.40;;;;;;;-13.62;100.00;138987.22;107026;1263;25365;-56
2024/01/03 01:18:46;;;;;;;18.40;11.40;;;;;;;-13.68;100.00;138973.97;107013;1273;25402;-58
2024/01/03 01:21:32;;;;;;;22.30;13.60;;;;;;;-13.70;100.00;138969.06;106984;1257;25337;-56
2024/01/03 01:24:19;;;;;;;21.50;12.20;;;;;;;-13.80;100.00;138944.55;107000;1264;25328;-56
2024/01/03 01:27:05;;;;;;;22.70;12.40;;;;;;;-13.99;100.00;138899.89;107020;1263;25341;-58
2024/01/03 01:29:50;;;;;;;22.50;11.50;;;;;;;-13.95;100.00;138907.75;107041;1263;25490;-57
2024/01/03 01:32:37;;;;;;;19.20;11.60;;;;;;;-13.85;100.00;138933.00;107040;1273;25877;-57
2024/01/03 01:35:23;;;;;;;21.10;11.10;;;;;;;-13.76;100.00;138954.34;107192;1262;22566;-55
2024/01/03 01:38:08;;;;;;;22.40;13.30;;;;;;;-13.70;100.00;138969.30;107192;1263;25321;-58
2024/01/03 01:40:54;;;;;;;23.20;12.70;;;;;;;-13.78;100.00;138950.67;107168;1263;23143;-58
2024/01/03 01:43:40;;;;;;;21.70;12.50;;;;;;;-13.87;100.00;138927.36;107117;1263;25417;-58
2024/01/03 01:46:26;;;;;;;22.50;12.20;;;;;;;-13.84;100.00;138936.70;107201;1263;25487;-58
2024/01/03 01:49:16;;;;;;;22.80;11.80;;;;;;;-13.84;100.00;138935.70;107147;1263;25481;-56
2024/01/03 01:52:01;;;;;;;24.80;12.70;;;;;;;-13.99;100.00;138899.41;107414;1263;22499;-58
2024/01/03 01:54:48;;;;;;;25.40;13.60;;;;;;;-14.10;100.00;138872.17;107702;1263;25472;-59
2024/01/03 01:57:36;;;;;;;22.30;12.40;;;;;;;-14.28;100.00;138829.75;107678;1251;25894;-57
2024/01/03 02:00:22;;;;;;;23.00;11.10;;;;;;;-14.30;100.00;138826.09;107327;1266;23248;-59
2024/01/03 02:03:10;;;;;;;25.00;13.70;;;;;;;-14.16;100.00;138858.70;107224;1263;23764;-58
2024/01/03 02:05:56;;;;;;;29.20;13.10;;;;;;;-14.06;100.00;138881.52;107169;1264;25321;-55
2024/01/03 02:08:42;;;;;;;23.40;13.20;;;;;;;-14.00;100.00;138896.45;107179;1263;25365;-59
2024/01/03 02:11:28;;;;;;;23.90;13.30;;;;;;;-14.11;100.00;138870.72;107132;1268;25341;-57
2024/01/03 02:14:14;;;;;;;22.40;12.30;;;;;;;-14.20;100.00;138849.38;107087;1263;25512;-59
2024/01/03 02:17:01;;;;;;;26.40;13.50;;;;;;;-14.28;100.00;138829.53;107146;1263;25526;-56
2024/01/03 02:19:47;;;;;;;24.30;12.90;;;;;;;-14.36;100.00;138810.39;107285;1263;25459;-60
2024/01/03 02:22:34;;;;;;;26.80;12.90;;;;;;;-14.39;100.00;138803.03;107325;1266;25487;-56
2024/01/03 02:25:19;;;;;;;27.60;12.90;;;;;;;-14.35;100.00;138813.58;107116;1266;23812;-59
2024/01/03 02:28:12;;;;;;;27.10;13.60;;;;;;;-14.24;100.00;138838.84;107209;1262;24388;-59
2024/01/03 02:30:58;;;;;;;27.70;13.10;;;;;;;-14.13;100.00;138866.53;107175;1263;25484;-59
2024/01/03 02:33:43;;;;;;;28.90;14.90;;;;;;;-14.04;100.00;138887.41;107389;1264;25413;-56
2024/01/03 02:36:29;;;;;;;24.40;11.80;;;;;;;-14.05;100.00;138885.91;107505;1266;25440;-56
2024/01/03 02:39:15;;;;;;;28.00;13.50;;;;;;;-14.06;100.00;138883.47;107563;1266;25397;-59
2024/01/03 02:42:01;;;;;;;24.80;13.00;;;;;;;-14.16;100.00;138857.70;107502;1261;25350;-62
2024/01/03 02:44:46;;;;;;;23.00;11.80;;;;;;;-14.26;100.00;138834.67;107326;1266;26581;-59
2024/01/03 02:47:34;;;;;;;23.90;13.40;;;;;;;-14.28;100.00;138831.22;107273;1263;25332;-59
2024/01/03 02:50:20;;;;;;;28.60;14.30;;;;;;;-14.26;100.00;138834.67;107208;1263;22520;-57
2024/01/03 02:53:05;;;;;;;26.00;14.30;;;;;;;-14.26;100.00;138834.66;107164;1263;25458;-61
2024/01/03 02:55:51;;;;;;;27.80;14.20;;;;;;;-14.29;100.00;138827.81;107193;1263;25322;-56
2024/01/03 02:58:37;;;;;;;26.80;14.40;;;;;;;-14.27;100.00;138833.22;107167;1253;25491;-60
2024/01/03 03:01:23;;;;;;;27.80;14.10;;;;;;;-14.27;100.00;138833.20;107161;1263;25490;-59
2024/01/03 03:04:08;;;;;;;30.30;14.90;;;;;;;-14.32;100.00;138821.41;107126;1263;22524;-55
2024/01/03 03:06:54;;;;;;;27.70;14.40;;;;;;;-14.38;100.00;138806.47;107129;1253;25337;-57
2024/01/03 03:09:40;;;;;;;30.40;15.50;;;;;;;-14.43;100.00;138795.44;107114;1263;25413;-59
2024/01/03 03:12:25;;;;;;;27.70;15.60;;;;;;;-14.50;100.00;138778.03;107204;1263;25480;-57
2024/01/03 03:15:11;;;;;;;31.10;16.10;;;;;;;-14.52;100.00;138773.16;107191;1263;22643;-58
2024/01/03 03:17:57;;;;;;;31.90;16.60;;;;;;;-14.55;100.00;138765.33;107178;1266;25417;-56
2024/01/03 03:20:42;;;;;;;29.30;16.10;;;;;;;-14.62;100.00;138748.66;107059;1267;25365;-57
2024/01/03 03:23:28;;;;;;;32.70;17.30;;;;;;;-14.67;100.00;138737.41;107220;1263;25376;-58
2024/01/03 03:26:14;;;;;;;30.20;16.00;;;;;;;-14.64;100.00;138743.28;107109;1263;22532;-58
2024/01/03 03:29:00;;;;;;;30.70;17.10;;;;;;;-14.57;100.00;138761.41;107058;1264;25491;-59
2024/01/03 03:31:46;;;;;;;28.40;14.60;;;;;;;-14.48;100.00;138782.94;107197;1266;25368;-59
2024/01/03 03:34:31;;;;;;;31.90;17.50;;;;;;;-14.43;100.00;138795.45;107077;1266;25347;-58
2024/01/03 03:37:18;;;;;;;35.60;16.10;;;;;;;-14.38;100.00;138806.72;107212;1266;25353;-57
2024/01/03 03:40:05;;;;;;;35.40;16.00;;;;;;;-14.38;100.00;138805.98;107200;1266;25404;-57
2024/01/03 03:42:51;;;;;;;41.10;17.90;;;;;;;-14.43;100.00;138794.47;106990;1263;25359;-56
2024/01/03 03:45:37;;;;;;;33.30;17.30;;;;;;;-14.47;100.00;138785.16;107004;1263;25336;-56
2024/01/03 03:48:22;;;;;;;34.00;16.80;;;;;;;-14.50;100.00;138777.08;107041;1263;25490;-58
2024/01/03 03:51:08;;;;;;;29.30;15.70;;;;;;;-14.58;100.00;138757.03;107092;1263;25692;-55
2024/01/03 03:53:54;;;;;;;31.50;16.70;;;;;;;-14.66;100.00;138740.09;107100;1268;25350;-59
2024/01/03 03:56:40;;;;;;;37.50;18.50;;;;;;;-14.72;100.00;138724.66;107245;1269;25360;-59
2024/01/03 03:59:26;;;;;;;35.40;18.40;;;;;;;-14.76;100.00;138714.36;107385;1263;25350;-59
2024/01/03 04:02:11;;;;;;;30.50;16.00;;;;;;;-14.77;100.00;138712.16;107405;1260;24221;-61
2024/01/03 04:04:58;;;;;;;28.70;15.30;;;;;;;-14.76;100.00;138716.56;107480;1263;25404;-55
2024/01/03 04:07:43;;;;;;;32.10;16.70;;;;;;;-14.72;100.00;138725.63;107553;1263;25407;-60
2024/01/03 04:10:29;;;;;;;34.40;17.40;;;;;;;-14.68;100.00;138734.70;107556;1263;23128;-59
2024/01/03 04:13:15;;;;;;;32.60;16.90;;;;;;;-14.64;100.00;138743.05;107683;1273;25420;-57
2024/01/03 04:16:04;;;;;;;33.40;16.90;;;;;;;-14.65;100.00;138741.55;107590;1263;25413;-57
2024/01/03 04:18:50;;;;;;;32.10;16.90;;;;;;;-14.73;100.00;138722.20;107700;1263;25993;-55
2024/01/03 04:21:36;;;;;;;33.50;17.60;;;;;;;-14.79;100.00;138706.78;107642;1260;25417;-58
2024/01/03 04:24:22;;;;;;;34.20;15.40;;;;;;;-14.76;100.00;138714.61;107358;1263;25321;-59
2024/01/03 04:27:07;;;;;;;32.10;17.60;;;;;;;-14.75;100.00;138717.80;107367;1264;25638;-63
2024/01/03 04:29:53;;;;;;;33.40;17.80;;;;;;;-14.77;100.00;138711.66;107180;1271;25399;-59
2024/01/03 04:32:39;;;;;;;33.40;18.10;;;;;;;-14.82;100.00;138699.91;107022;1263;25340;-59
2024/01/03 04:35:24;;;;;;;33.70;15.90;;;;;;;-14.87;100.00;138689.11;107157;1270;25436;-58
2024/01/03 04:38:10;;;;;;;37.60;18.50;;;;;;;-14.89;100.00;138684.69;107105;1263;25521;-59
2024/01/03 04:40:56;;;;;;;35.00;17.10;;;;;;;-14.94;100.00;138672.47;107137;1263;25418;-57
2024/01/03 04:43:42;;;;;;;34.00;18.00;;;;;;;-14.92;100.00;138675.64;107144;1263;25350;-59
2024/01/03 04:46:28;;;;;;;37.50;18.40;;;;;;;-14.91;100.00;138679.30;107106;1264;25284;-58
2024/01/03 04:49:14;;;;;;;32.20;17.10;;;;;;;-14.85;100.00;138692.31;107154;1263;25408;-60
2024/01/03 04:52:00;;;;;;;27.40;16.40;;;;;;;-14.95;100.00;138669.53;107173;1263;25378;-58
2024/01/03 04:54:46;;;;;;;33.50;17.50;;;;;;;-15.01;100.00;138655.78;107148;1263;25479;-56
2024/01/03 04:57:35;;;;;;;32.70;17.00;;;;;;;-15.07;100.00;138641.09;107056;1263;25369;-59
2024/01/03 05:00:21;;;;;;;31.40;18.20;;;;;;;-15.17;100.00;138616.84;106983;1263;25334;-55
2024/01/03 05:03:06;;;;;;;30.50;15.80;;;;;;;-15.25;100.00;138597.98;107184;1264;25490;-60
2024/01/03 05:05:52;;;;;;;35.40;17.70;;;;;;;-15.29;100.00;138587.47;107080;1269;25335;-56
2024/01/03 05:08:38;;;;;;;34.70;16.80;;;;;;;-15.36;100.00;138571.28;107084;1270;25420;-57
2024/01/03 05:11:24;;;;;;;32.90;15.70;;;;;;;-15.37;100.00;138569.83;107091;1264;25335;-55
2024/01/03 05:14:09;;;;;;;33.10;17.70;;;;;;;-15.38;100.00;138567.13;107147;1263;25491;-56
2024/01/03 05:16:54;;;;;;;33.00;16.90;;;;;;;-15.42;100.00;138557.33;107185;1270;25359;-59
2024/01/03 05:19:40;;;;;;;25.60;15.00;;;;;;;-15.43;100.00;138554.66;107114;1273;25338;-59
2024/01/03 05:22:26;;;;;;;35.70;18.10;;;;;;;-15.40;100.00;138561.00;107065;1270;23388;-55
2024/01/03 05:25:11;;;;;;;31.80;17.20;;;;;;;-15.39;100.00;138563.70;107104;1270;25369;-57
2024/01/03 05:27:57;;;;;;;34.60;19.00;;;;;;;-15.38;100.00;138566.41;107168;1273;25353;-58
2024/01/03 05:30:42;;;;;;;42.00;20.00;;;;;;;-15.38;100.00;138567.13;107133;1256;25328;-60
2024/01/03 05:33:28;;;;;;;38.30;20.40;;;;;;;-15.42;100.00;138557.83;107075;1273;25558;-57
2024/01/03 05:36:14;;;;;;;39.10;18.30;;;;;;;-15.43;100.00;138554.16;107179;1263;25392;-56
2024/01/03 05:39:00;;;;;;;34.40;17.70;;;;;;;-15.43;100.00;138553.91;107132;1263;22616;-55
2024/01/03 05:41:45;;;;;;;37.90;17.60;;;;;;;-15.41;100.00;138559.30;107174;1270;23110;-55
2024/01/03 05:44:31;;;;;;;42.50;20.40;;;;;;;-15.39;100.00;138565.19;107380;1256;25580;-55
2024/01/03 05:47:17;;;;;;;37.30;19.90;;;;;;;-15.38;100.00;138565.42;107519;1263;25951;-58
2024/01/03 05:50:03;;;;;;;38.80;19.80;;;;;;;-15.33;100.00;138578.16;107191;1269;25418;-58
2024/01/03 05:52:49;;;;;;;34.50;16.90;;;;;;;-15.35;100.00;138572.77;107198;1269;25331;-55
2024/01/03 05:55:34;;;;;;;33.50;17.40;;;;;;;-15.45;100.00;138549.25;107198;1269;25360;-55
2024/01/03 05:58:20;;;;;;;42.60;19.90;;;;;;;-15.47;100.00;138543.36;107184;1271;25471;-57
2024/01/03 06:01:06;;;;;;;39.30;18.60;;;;;;;-15.46;100.00;138546.56;107042;1263;25343;-56
2024/01/03 06:03:52;;;;;;;33.70;16.90;;;;;;;-15.48;100.00;138542.66;107058;1272;25350;-55
2024/01/03 06:06:38;;;;;;;38.60;18.70;;;;;;;-15.52;100.00;138533.83;107000;1267;25360;-56
2024/01/03 06:09:24;;;;;;;38.60;17.70;;;;;;;-15.49;100.00;138538.73;107002;1263;25325;-58
2024/01/03 06:12:09;;;;;;;37.30;18.60;;;;;;;-15.40;100.00;138562.48;107222;1267;25487;-58
2024/01/03 06:14:59;;;;;;;36.30;17.90;;;;;;;-15.32;100.00;138582.08;107059;1269;25360;-58
2024/01/03 06:17:45;;;;;;;39.10;18.40;;;;;;;-15.30;100.00;138585.25;107123;1273;25356;-59
2024/01/03 06:20:31;;;;;;;32.40;16.40;;;;;;;-15.32;100.00;138582.06;107109;1270;25331;-60
2024/01/03 06:23:17;;;;;;;33.20;18.10;;;;;;;-15.30;100.00;138585.02;107137;1271;25471;-56
2024/01/03 06:26:03;;;;;;;34.00;16.20;;;;;;;-15.26;100.00;138595.30;107193;1271;25382;-60
2024/01/03 06:28:48;;;;;;;36.80;17.90;;;;;;;-15.24;100.00;138600.94;107108;1263;25391;-59
2024/01/03 06:31:35;;;;;;;40.90;19.90;;;;;;;-15.20;100.00;138610.00;107140;1263;25430;-59
2024/01/03 06:34:20;;;;;;;36.50;18.60;;;;;;;-15.19;100.00;138611.22;107068;1269;25382;-60
2024/01/03 06:37:06;;;;;;;37.10;18.80;;;;;;;-15.20;100.00;138610.97;107100;1272;25335;-59
2024/01/03 06:39:51;;;;;;;45.70;19.60;;;;;;;-15.22;100.00;138605.09;107070;1271;25413;-60
2024/01/03 06:42:37;;;;;;;43.20;21.10;;;;;;;-15.25;100.00;138598.00;107196;1272;23307;-59
2024/01/03 06:45:23;;;;;;;37.10;18.70;;;;;;;-15.24;100.00;138600.45;107385;1273;25341;-57
2024/01/03 06:48:08;;;;;;;36.80;18.20;;;;;;;-15.18;100.00;138613.91;107297;1263;25580;-58
2024/01/03 06:50:55;;;;;;;37.50;17.10;;;;;;;-15.13;100.00;138626.64;107007;1264;22473;-59
2024/01/03 06:53:41;;;;;;;37.10;17.80;;;;;;;-15.08;100.00;138637.67;107096;1265;25398;-58
2024/01/03 06:56:26;;;;;;;40.20;19.10;;;;;;;-15.07;100.00;138639.64;107085;1273;23220;-59
2024/01/03 06:59:12;;;;;;;34.80;18.10;;;;;;;-15.05;100.00;138644.03;107162;1270;22763;-56
2024/01/03 07:01:57;;;;;;;39.60;21.10;;;;;;;-15.03;100.00;138649.91;107113;1272;25335;-59
2024/01/03 07:04:43;;;;;;;47.50;19.80;;;;;;;-15.00;100.00;138656.28;107068;1264;25478;-58
2024/01/03 07:07:29;;;;;;;42.50;19.50;;;;;;;-14.99;100.00;138659.45;107113;1263;25331;-57
2024/01/03 07:10:14;;;;;;;42.80;21.50;;;;;;;-14.99;100.00;138660.94;107164;1263;24428;-58
2024/01/03 07:13:00;;;;;;;44.30;21.80;;;;;;;-14.99;100.00;138659.70;107120;1264;25407;-60
2024/01/03 07:15:46;;;;;;;45.30;22.60;;;;;;;-14.94;100.00;138671.72;107284;1273;25411;-61
2024/01/03 07:18:32;;;;;;;48.10;22.70;;;;;;;-14.81;100.00;138702.09;107152;1273;25359;-58
2024/01/03 07:21:19;;;;;;;50.30;24.40;;;;;;;-14.74;100.00;138720.50;107136;1261;22536;-60
2024/01/03 07:24:05;;;;;;;50.70;24.30;;;;;;;-14.75;100.00;138717.78;107268;1263;25369;-61
2024/01/03 07:26:51;;;;;;;48.80;23.60;;;;;;;-14.73;100.00;138723.66;107222;1269;25334;-59
2024/01/03 07:29:37;;;;;;;47.40;24.80;;;;;;;-14.66;100.00;138739.59;107210;1263;25321;-58
2024/01/03 07:32:22;;;;;;;48.50;23.80;;;;;;;-14.54;100.00;138767.30;107218;1266;25522;-59
2024/01/03 07:35:09;;;;;;;41.80;21.30;;;;;;;-14.53;100.00;138769.25;107247;1267;25462;-60
2024/01/03 07:37:55;;;;;;;44.90;21.50;;;;;;;-14.50;100.00;138776.55;107107;1272;25465;-55
2024/01/03 07:40:40;;;;;;;46.30;24.00;;;;;;;-14.45;100.00;138789.80;107078;1271;25331;-62
2024/01/03 07:43:27;;;;;;;51.60;24.80;;;;;;;-14.40;100.00;138801.33;107142;1269;25334;-55
2024/01/03 07:46:17;;;;;;;50.00;24.20;;;;;;;-14.40;100.00;138800.34;107211;1264;25526;-59
2024/01/03 07:49:02;;;;;;;46.30;22.30;;;;;;;-14.39;100.00;138802.55;107114;1263;25350;-60
2024/01/03 07:51:49;;;;;;;41.80;21.70;;;;;;;-14.37;100.00;138809.16;107095;1264;25378;-56
2024/01/03 07:54:35;;;;;;;40.30;22.20;;;;;;;-14.33;100.00;138819.22;107149;1260;25405;-55
2024/01/03 07:57:21;;;;;;;42.00;20.90;;;;;;;-14.28;100.00;138829.75;107111;1272;25561;-61
2024/01/03 08:00:07;;;;;;;43.30;22.00;;;;;;;-14.29;100.00;138828.30;107144;1264;25481;-59
2024/01/03 08:02:53;;;;;;;46.00;20.90;;;;;;;-14.29;100.00;138829.03;107502;1267;25430;-57
2024/01/03 08:05:39;;;;;;;44.50;21.80;;;;;;;-14.28;100.00;138830.02;107303;1267;25436;-57
2024/01/03 08:08:25;;;;;;;41.00;20.10;;;;;;;-14.27;100.00;138832.95;107120;1264;25529;-61
2024/01/03 08:11:11;;;;;;;45.40;20.40;;;;;;;-14.21;100.00;138846.67;107197;1264;25325;-59
2024/01/03 08:13:57;;;;;;;40.80;20.30;;;;;;;-14.19;100.00;138850.34;107064;1269;25423;-59
2024/01/03 08:16:43;;;;;;;44.90;20.20;;;;;;;-14.17;100.00;138855.50;107009;1264;25387;-59
2024/01/03 08:19:28;;;;;;;40.30;21.10;;;;;;;-14.14;100.00;138863.83;107042;1272;25359;-59
2024/01/03 08:22:15;;;;;;;38.40;21.60;;;;;;;-14.06;100.00;138881.75;107001;1273;25359;-58
2024/01/03 08:25:00;;;;;;;42.40;21.70;;;;;;;-13.97;100.00;138904.80;107073;1264;25331;-59
2024/01/03 08:27:46;;;;;;;33.00;14.90;;;;;;;-13.93;100.00;138913.64;107142;1262;25468;-59
2024/01/03 08:30:31;;;;;;;40.90;20.50;;;;;;;-13.94;100.00;138911.44;107141;1264;25346;-63
2024/01/03 08:33:17;;;;;;;36.30;18.10;;;;;;;-13.91;100.00;138918.53;107163;1251;26487;-57
2024/01/03 08:36:04;;;;;;;41.60;20.00;;;;;;;-13.90;100.00;138921.23;107091;1264;25423;-61
2024/01/03 08:38:50;;;;;;;44.80;23.20;;;;;;;-13.84;100.00;138936.69;107296;1263;25331;-59
2024/01/03 08:41:37;;;;;;;42.20;21.80;;;;;;;-13.79;100.00;138948.45;107147;1267;25332;-59
2024/01/03 08:44:23;;;;;;;40.60;21.20;;;;;;;-13.79;100.00;138947.47;107072;1267;25369;-59
2024/01/03 08:47:08;;;;;;;43.90;20.90;;;;;;;-13.76;100.00;138954.84;107201;1260;24369;-58
2024/01/03 08:49:54;;;;;;;45.00;22.50;;;;;;;-13.70;100.00;138968.34;107188;1264;25417;-59
2024/01/03 08:52:41;;;;;;;36.90;18.10;;;;;;;-13.63;100.00;138985.27;107143;1264;25318;-57
2024/01/03 08:55:26;;;;;;;43.70;21.30;;;;;;;-13.61;100.00;138989.66;107213;1255;25349;-56
2024/01/03 08:58:12;;;;;;;37.60;19.60;;;;;;;-13.59;100.00;138996.05;107178;1254;25359;-57
2024/01/03 09:00:58;;;;;;;42.10;21.10;;;;;;;-13.51;100.00;139012.98;107179;1264;25490;-56
2024/01/03 09:03:46;;;;;;;39.10;19.80;;;;;;;-13.48;100.00;139020.34;107147;1264;25412;-56
2024/01/03 09:06:35;;;;;;;35.60;19.20;;;;;;;-13.49;100.00;139018.86;107115;1273;25442;-57
2024/01/03 09:09:22;;;;;;;41.80;22.70;;;;;;;-13.45;100.00;139027.92;107211;1255;25353;-57
2024/01/03 09:12:08;;;;;;;42.10;22.20;;;;;;;-13.41;100.00;139039.97;107600;1261;25354;-59
2024/01/03 09:14:54;;;;;;;38.90;20.90;;;;;;;-13.34;100.00;139055.19;107350;1271;25335;-58
2024/01/03 09:17:43;;;;;;;42.50;21.70;;;;;;;-13.29;100.00;139067.22;107166;1257;22569;-59
2024/01/03 09:20:28;;;;;;;40.50;21.90;;;;;;;-13.25;100.00;139076.25;107340;1264;23288;-57
2024/01/03 09:23:15;;;;;;;42.30;22.90;;;;;;;-13.28;100.00;139070.16;107239;1273;26481;-61
2024/01/03 09:26:04;;;;;;;41.10;22.30;;;;;;;-13.23;100.00;139080.66;107254;1264;25794;-60
2024/01/03 09:28:51;;;;;;;41.30;21.80;;;;;;;-13.20;100.00;139089.75;107334;1264;25398;-59
2024/01/03 09:31:45;;;;;;;45.10;24.10;;;;;;;-13.20;100.00;139089.02;107241;1258;25366;-57
2024/01/03 09:34:30;;;;;;;40.80;22.70;;;;;;;-13.17;100.00;139096.39;107520;1260;25417;-59
2024/01/03 09:37:16;;;;;;;42.30;22.60;;;;;;;-13.14;100.00;139104.45;107435;1254;25421;-56
2024/01/03 09:40:03;;;;;;;40.20;20.80;;;;;;;-13.11;100.00;139110.38;107039;1261;25359;-59
2024/01/03 09:42:49;;;;;;;39.60;21.00;;;;;;;-13.12;100.00;139107.17;106956;1272;25380;-55
2024/01/03 09:45:37;;;;;;;36.90;20.60;;;;;;;-13.13;100.00;139104.97;106865;1269;25408;-58
2024/01/03 09:48:23;;;;;;;45.60;23.70;;;;;;;-13.15;100.00;139101.30;107594;1272;25794;-59
2024/01/03 09:51:09;;;;;;;33.20;19.30;;;;;;;-13.17;100.00;139094.91;107333;1271;25334;-57
2024/01/03 09:53:56;;;;;;;40.00;22.00;;;;;;;-13.19;100.00;139090.73;107305;1264;25360;-58
2024/01/03 09:56:44;;;;;;;37.70;21.10;;;;;;;-13.19;100.00;139091.45;107395;1267;23312;-57
2024/01/03 09:59:30;;;;;;;39.40;20.10;;;;;;;-13.07;100.00;139120.19;107452;1266;22523;-58
2024/01/03 10:02:27;;;;;;;39.60;21.40;;;;;;;-13.04;100.00;139127.55;107432;1263;23301;-60
2024/01/03 10:05:23;;;;;;;43.10;22.40;;;;;;;-12.94;100.00;139150.88;107763;1260;25593;-57
2024/01/03 10:08:20;;;;;;;47.10;24.30;;;;;;;-12.85;100.00;139172.00;107511;1267;23889;-59
2024/01/03 10:11:26;;;;;;;43.50;21.70;;;;;;;-12.81;100.00;139182.80;107656;1263;25545;-59
2024/01/03 10:14:19;;;;;;;44.60;21.90;;;;;;;-12.76;100.00;139193.09;107318;1264;25334;-58
2024/01/03 10:17:09;;;;;;;39.40;23.30;;;;;;;-12.70;100.00;139210.03;107531;1263;22747;-60
2024/01/03 10:19:55;;;;;;;45.60;24.70;;;;;;;-12.69;100.00;139211.28;107350;1264;23753;-58
2024/01/03 10:22:41;;;;;;;48.40;24.50;;;;;;;-12.66;100.00;139216.92;107388;1256;25331;-57
2024/01/03 10:25:27;;;;;;;37.20;20.10;;;;;;;-12.67;100.00;139214.95;107518;1264;25341;-56
2024/01/03 10:28:16;;;;;;;40.80;22.60;;;;;;;-12.76;100.00;139193.34;107448;1267;25402;-60
2024/01/03 10:31:07;;;;;;;42.10;21.30;;;;;;;-12.84;100.00;139174.20;107134;1267;25348;-59
2024/01/03 10:33:52;;;;;;;39.10;20.20;;;;;;;-12.89;100.00;139163.64;107561;1256;23151;-56
2024/01/03 10:36:50;;;;;;;40.90;22.20;;;;;;;-12.87;100.00;139166.83;107340;1257;25350;-58
2024/01/03 10:39:38;;;;;;;39.30;21.30;;;;;;;-12.90;100.00;139161.66;107289;1257;23120;-60
2024/01/03 10:42:24;;;;;;;41.40;22.50;;;;;;;-12.87;100.00;139166.59;107513;1267;25361;-58
2024/01/03 10:45:10;;;;;;;38.80;21.10;;;;;;;-12.86;100.00;139169.78;107184;1264;24356;-60
2024/01/03 10:47:57;;;;;;;45.10;24.20;;;;;;;-12.89;100.00;139164.39;107426;1263;25359;-61
2024/01/03 10:50:44;;;;;;;43.50;23.40;;;;;;;-12.86;100.00;139170.53;107001;1264;25375;-58
2024/01/03 10:53:36;;;;;;;39.40;20.80;;;;;;;-12.85;100.00;139171.27;106925;1263;25559;-60
2024/01/03 10:56:22;;;;;;;47.30;23.10;;;;;;;-12.89;100.00;139164.14;107069;1263;25490;-66
2024/01/03 10:59:09;;;;;;;42.60;22.70;;;;;;;-12.87;100.00;139167.58;106968;1257;24397;-60
2024/01/03 11:02:01;;;;;;;47.80;23.20;;;;;;;-12.88;100.00;139164.88;106993;1267;25343;-58
2024/01/03 11:04:58;;;;;;;48.10;25.10;;;;;;;-12.86;100.00;139169.53;107152;1261;23225;-58
2024/01/03 11:07:50;;;;;;;41.60;23.00;;;;;;;-12.82;100.00;139179.09;106874;1257;25335;-57
2024/01/03 11:10:54;;;;;;;43.30;24.00;;;;;;;-12.82;100.00;139179.59;106911;1261;25531;-59
2024/01/03 11:13:40;;;;;;;47.20;25.50;;;;;;;-12.82;100.00;139178.86;106876;1260;25362;-58
2024/01/03 11:16:38;;;;;;;45.90;24.00;;;;;;;-12.76;100.00;139193.84;106866;1274;25349;-58
2024/01/03 11:19:29;;;;;;;51.70;27.60;;;;;;;-12.66;100.00;139219.38;107227;1264;23365;-58
2024/01/03 11:22:15;;;;;;;49.30;27.60;;;;;;;-12.68;100.00;139214.72;107123;1263;25350;-60
2024/01/03 11:25:01;;;;;;;46.70;24.70;;;;;;;-12.69;100.00;139211.53;107073;1263;24180;-59
2024/01/03 11:27:47;;;;;;;46.50;23.20;;;;;;;-12.68;100.00;139212.75;107306;1260;25405;-60
2024/01/03 11:30:42;;;;;;;39.80;21.30;;;;;;;-12.67;100.00;139215.44;107483;1266;25406;-58
2024/01/03 11:33:31;;;;;;;46.90;24.00;;;;;;;-12.70;100.00;139209.80;107051;1257;25481;-57
2024/01/03 11:36:47;;;;;;;45.90;25.60;;;;;;;-12.72;100.00;139202.91;107449;1253;25420;-59
2024/01/03 11:39:43;;;;;;;45.60;24.20;;;;;;;-12.73;100.00;139201.70;107483;1257;25418;-60
2024/01/03 11:42:40;;;;;;;44.20;25.50;;;;;;;-12.71;100.00;139206.34;107583;1264;25415;-60
2024/01/03 11:45:26;;;;;;;42.70;23.60;;;;;;;-12.69;100.00;139212.02;107671;1262;23948;-59
2024/01/03 11:48:20;;;;;;;44.50;23.10;;;;;;;-12.68;100.00;139214.47;107584;1260;25936;-58
2024/01/03 11:51:23;;;;;;;37.90;20.30;;;;;;;-12.73;100.00;139202.42;107609;1254;24182;-58
2024/01/03 11:54:09;;;;;;;38.80;23.70;;;;;;;-12.81;100.00;139182.05;107370;1270;23621;-60
2024/01/03 11:56:56;;;;;;;49.50;23.80;;;;;;;-12.83;100.00;139176.66;107593;1267;24248;-61
2024/01/03 11:59:42;;;;;;;43.40;24.90;;;;;;;-12.82;100.00;139179.34;107554;1257;23953;-58
2024/01/03 12:02:30;;;;;;;40.30;20.00;;;;;;;-12.81;100.00;139181.33;107211;1264;25368;-58
2024/01/03 12:05:17;;;;;;;39.60;20.80;;;;;;;-12.86;100.00;139169.30;107523;1261;25402;-59
2024/01/03 12:08:04;;;;;;;41.10;22.80;;;;;;;-12.89;100.00;139162.66;107664;1257;25426;-59
2024/01/03 12:10:50;;;;;;;42.30;21.90;;;;;;;-12.91;100.00;139157.98;107627;1265;25493;-56
2024/01/03 12:13:36;;;;;;;42.90;23.90;;;;;;;-12.95;100.00;139147.92;107627;1254;25424;-57